createdAt,value
2019-01-23T00:02:19.056Z,38.00
2019-01-23T00:05:23.928Z,37.83
2019-01-23T00:08:28.771Z,39.25
2019-01-23T00:11:33.677Z,38.33
2019-01-23T00:14:38.525Z,36.43
2019-01-23T00:17:43.382Z,36.43
2019-01-23T00:20:48.228Z,36.80
2019-01-23T00:23:53.148Z,36.33
2019-01-23T00:26:58.102Z,34.70
2019-01-23T00:30:03.237Z,38.27
2019-01-23T00:33:08.170Z,40.30
2019-01-23T00:36:13.107Z,40.67
2019-01-23T00:39:17.943Z,38.47
2019-01-23T00:42:22.867Z,36.30
2019-01-23T00:45:27.820Z,36.35
2019-01-23T00:48:32.700Z,36.63
2019-01-23T00:51:37.624Z,36.00
2019-01-23T00:54:42.472Z,37.40
2019-01-23T00:57:47.306Z,36.80
2019-01-23T01:00:52.201Z,36.90
2019-01-23T01:03:57.133Z,36.50
2019-01-23T01:07:02.091Z,36.50
2019-01-23T01:10:10.486Z,36.50
2019-01-23T01:13:15.445Z,37.27
2019-01-23T01:16:20.336Z,36.07
2019-01-23T01:19:25.216Z,35.70
2019-01-23T01:22:30.103Z,36.20
2019-01-23T01:25:34.984Z,35.23
2019-01-23T01:28:40.099Z,36.50
2019-01-23T01:31:44.968Z,36.57
2019-01-23T01:34:49.929Z,36.43
2019-01-23T01:37:54.830Z,34.73
2019-01-23T01:40:59.711Z,35.90
2019-01-23T01:44:04.881Z,36.23
2019-01-23T01:47:09.727Z,35.00
2019-01-23T01:50:17.121Z,33.10
2019-01-23T01:53:21.974Z,36.40
2019-01-23T01:56:27.836Z,36.03
2019-01-23T01:59:32.682Z,33.42
2019-01-23T02:02:37.556Z,35.05
2019-01-23T02:45:59.053Z,36.40
2019-01-23T02:49:03.999Z,35.17
2019-01-23T02:52:08.861Z,36.97
2019-01-23T02:55:14.332Z,35.00
2019-01-23T02:58:19.243Z,36.17
2019-01-23T03:01:24.145Z,35.50
2019-01-23T03:04:29.125Z,38.00
2019-01-23T03:07:34.100Z,37.63
2019-01-23T03:10:38.954Z,35.43
2019-01-23T03:13:43.795Z,37.87
2019-01-23T03:16:48.634Z,39.03
2019-01-23T03:19:53.646Z,38.47
2019-01-23T03:22:58.515Z,37.17
2019-01-23T03:26:04.504Z,36.07
2019-01-23T03:29:09.408Z,36.17
2019-01-23T03:32:14.306Z,36.70
2019-01-23T03:35:19.273Z,38.03
2019-01-23T03:38:24.149Z,38.07
2019-01-23T03:41:29.022Z,40.27
2019-01-23T03:44:33.892Z,41.43
2019-01-23T03:47:38.878Z,39.33
2019-01-23T03:50:43.751Z,40.07
2019-01-23T03:53:48.618Z,39.27
2019-01-23T03:56:53.489Z,38.77
2019-01-23T03:59:58.355Z,37.73
2019-01-23T04:03:04.345Z,38.80
2019-01-23T04:06:09.227Z,39.93
2019-01-23T04:09:14.202Z,38.75
2019-01-23T04:12:19.069Z,38.20
2019-01-23T04:15:23.924Z,41.33
2019-01-23T04:18:28.762Z,36.27
2019-01-23T04:21:33.602Z,38.63
2019-01-23T04:24:38.522Z,38.50
2019-01-23T04:27:43.653Z,37.20
2019-01-23T04:30:48.563Z,38.20
2019-01-23T04:33:53.433Z,38.10
2019-01-23T04:36:58.340Z,37.50
2019-01-23T04:40:04.725Z,39.87
2019-01-23T04:43:09.555Z,39.08
2019-01-23T04:46:14.497Z,38.48
2019-01-23T04:49:19.384Z,36.43
2019-01-23T04:52:35.115Z,36.63
2019-01-23T04:55:40.418Z,37.25
2019-01-23T04:58:45.248Z,35.37
2019-01-23T05:01:50.121Z,37.60
2019-01-23T05:04:55.021Z,36.47
2019-01-23T05:07:59.954Z,37.53
2019-01-23T05:11:04.818Z,37.47
2019-01-23T05:14:09.703Z,38.50
2019-01-23T05:17:14.568Z,35.40
2019-01-23T05:20:19.427Z,37.10
2019-01-23T05:23:24.337Z,36.43
2019-01-23T05:26:29.230Z,36.33
2019-01-23T05:29:34.212Z,39.17
2019-01-23T05:32:39.138Z,38.33
2019-01-23T05:35:44.023Z,38.17
2019-01-23T05:38:48.862Z,40.33
2019-01-23T05:41:53.788Z,40.10
2019-01-23T05:44:58.674Z,36.57
2019-01-23T05:48:03.542Z,39.30
2019-01-23T05:51:08.417Z,36.57
2019-01-23T05:54:13.322Z,38.10
2019-01-23T05:57:19.117Z,36.50
2019-01-23T06:00:23.949Z,40.30
2019-01-23T06:03:28.825Z,36.80
2019-01-23T06:06:33.685Z,38.00
2019-01-23T06:09:38.564Z,37.03
2019-01-23T06:12:43.420Z,38.33
2019-01-23T06:15:48.268Z,39.37
2019-01-23T06:18:53.187Z,37.28
2019-01-23T06:21:58.118Z,38.67
2019-01-23T06:25:03.061Z,39.97
2019-01-23T06:28:07.901Z,39.67
2019-01-23T06:31:13.328Z,39.87
2019-01-23T06:34:18.233Z,40.23
2019-01-23T06:37:23.068Z,40.23
2019-01-23T06:40:27.937Z,41.03
2019-01-23T06:43:32.785Z,43.10
2019-01-23T06:46:37.656Z,41.13
2019-01-23T06:49:42.488Z,40.83
2019-01-23T06:52:47.447Z,40.60
2019-01-23T06:55:52.334Z,40.30
2019-01-23T06:58:57.191Z,42.23
2019-01-23T07:02:02.104Z,45.43
2019-01-23T07:05:08.698Z,44.97
2019-01-23T07:08:13.548Z,43.87
2019-01-23T07:11:18.370Z,47.07
2019-01-23T07:14:23.246Z,48.63
2019-01-23T07:17:28.139Z,48.90
2019-01-23T07:20:33.079Z,50.33
2019-01-23T07:23:37.950Z,48.70
2019-01-23T07:26:42.778Z,52.67
2019-01-23T07:29:47.698Z,52.50
2019-01-23T07:32:52.584Z,51.63
2019-01-23T07:35:57.784Z,52.20
2019-01-23T07:39:04.388Z,53.13
2019-01-23T07:42:09.319Z,55.90
2019-01-23T07:45:17.523Z,53.37
2019-01-23T07:48:22.357Z,53.27
2019-01-23T07:51:27.232Z,54.63
2019-01-23T07:54:32.090Z,57.60
2019-01-23T07:57:36.982Z,60.97
2019-01-23T08:00:42.930Z,60.37
2019-01-23T08:03:47.795Z,62.77
2019-01-23T08:06:52.633Z,62.77
2019-01-23T08:09:57.483Z,59.87
2019-01-23T08:13:02.323Z,64.07
2019-01-23T08:16:07.174Z,63.77
2019-01-23T08:19:12.008Z,63.93
2019-01-23T08:22:16.891Z,65.03
2019-01-23T08:25:21.734Z,70.00
2019-01-23T08:28:26.617Z,70.90
2019-01-23T08:31:31.461Z,67.67
2019-01-23T08:34:36.316Z,70.77
2019-01-23T08:37:41.134Z,71.97
2019-01-23T08:40:45.999Z,69.30
2019-01-23T08:43:50.844Z,72.10
2019-01-23T08:46:55.706Z,70.40
2019-01-23T08:50:01.516Z,71.40
2019-01-23T08:53:06.682Z,70.03
2019-01-23T08:56:11.735Z,72.73
2019-01-23T08:59:16.658Z,75.07
2019-01-23T09:02:21.575Z,76.50
2019-01-23T09:05:26.843Z,76.75
2019-01-23T09:08:37.560Z,79.30
2019-01-23T09:11:38.394Z,80.30
2019-01-23T09:14:43.321Z,79.10
2019-01-23T09:17:48.269Z,81.57
2019-01-23T09:20:53.125Z,79.70
2019-01-23T09:23:58.094Z,84.30
2019-01-23T09:27:03.023Z,82.87
2019-01-23T09:30:22.895Z,83.90
2019-01-23T09:33:33.547Z,86.72
2019-01-23T09:37:02.586Z,86.97
2019-01-23T09:40:10.685Z,83.10
2019-01-23T09:43:21.661Z,86.90
2019-01-23T09:46:35.515Z,83.27
2019-01-23T09:49:52.109Z,80.07
2019-01-23T09:53:00.042Z,83.80
2019-01-23T09:56:04.973Z,85.57
2019-01-23T09:59:09.947Z,86.47
2019-01-23T10:02:14.819Z,86.17
2019-01-23T10:05:19.692Z,90.57
2019-01-23T10:08:24.602Z,89.90
2019-01-23T10:11:29.456Z,90.38
2019-01-23T10:14:34.309Z,91.87
2019-01-23T10:17:39.140Z,88.60
2019-01-23T10:20:43.994Z,88.23
2019-01-23T10:23:48.848Z,88.97
2019-01-23T10:26:53.706Z,87.63
2019-01-23T10:29:58.648Z,89.17
2019-01-23T10:33:03.493Z,88.80
2019-01-23T10:36:08.518Z,88.67
2019-01-23T10:39:13.394Z,90.70
2019-01-23T10:42:18.439Z,87.60
2019-01-23T10:45:23.442Z,87.43
2019-01-23T10:48:28.394Z,85.37
2019-01-23T10:51:33.351Z,85.17
2019-01-23T10:54:38.250Z,84.77
2019-01-23T10:57:43.513Z,82.10
2019-01-23T11:00:48.432Z,83.83
2019-01-23T11:03:53.302Z,78.02
2019-01-23T11:06:58.187Z,78.37
2019-01-23T11:10:07.431Z,79.83
2019-01-23T11:13:12.850Z,83.22
2019-01-23T11:16:17.757Z,82.00
2019-01-23T11:19:23.514Z,78.33
2019-01-23T11:22:28.376Z,83.23
2019-01-23T11:25:33.224Z,81.13
2019-01-23T11:28:38.101Z,83.07
2019-01-23T11:31:42.949Z,83.13
2019-01-23T11:34:47.881Z,84.17
2019-01-23T11:37:53.744Z,80.00
2019-01-23T11:40:58.601Z,84.17
2019-01-23T11:44:03.848Z,79.55
2019-01-23T11:47:08.693Z,80.87
2019-01-23T11:50:21.792Z,83.10
2019-01-23T11:53:22.388Z,78.63
2019-01-23T11:56:28.158Z,78.37
2019-01-23T11:59:33.047Z,76.57
2019-01-23T12:02:38.913Z,74.27
2019-01-23T12:05:43.833Z,72.03
2019-01-23T12:08:48.721Z,78.67
2019-01-23T12:11:54.478Z,74.67
2019-01-23T12:14:59.382Z,73.83
2019-01-23T12:18:04.285Z,74.37
2019-01-23T12:21:09.174Z,76.57
2019-01-23T12:24:14.098Z,74.93
2019-01-23T12:27:19.018Z,76.00
2019-01-23T12:30:29.841Z,76.07
2019-01-23T12:33:34.834Z,73.57
2019-01-23T12:36:39.722Z,70.63
2019-01-23T12:39:44.598Z,69.67
2019-01-23T12:42:49.653Z,71.43
2019-01-23T12:45:55.557Z,70.33
2019-01-23T12:49:00.638Z,69.07
2019-01-23T12:52:05.514Z,69.22
2019-01-23T12:55:10.629Z,69.30
2019-01-23T12:58:15.566Z,72.87
2019-01-23T13:01:20.731Z,75.67
2019-01-23T13:04:25.660Z,70.23
2019-01-23T13:07:33.465Z,68.00
2019-01-23T13:10:38.213Z,74.90
2019-01-23T13:13:43.097Z,71.97
2019-01-23T13:16:47.972Z,75.37
2019-01-23T13:19:53.026Z,72.17
2019-01-23T13:22:57.970Z,68.27
2019-01-23T13:26:02.853Z,66.67
2019-01-23T13:29:07.705Z,63.37
2019-01-23T13:32:12.604Z,62.90
2019-01-23T13:35:26.478Z,64.70
2019-01-23T13:38:31.397Z,63.50
2019-01-23T13:41:36.247Z,61.00
2019-01-23T13:44:41.085Z,60.63
2019-01-23T13:47:46.032Z,59.57
2019-01-23T13:50:51.005Z,53.57
2019-01-23T13:53:55.850Z,54.97
2019-01-23T13:57:00.695Z,53.00
2019-01-23T14:00:14.263Z,54.93
2019-01-23T14:03:19.161Z,54.90
2019-01-23T14:06:23.999Z,47.87
2019-01-23T14:09:28.944Z,48.43
2019-01-23T14:12:33.893Z,49.75
2019-01-23T14:15:39.889Z,48.17
2019-01-23T14:18:44.841Z,49.00
2019-01-23T14:21:49.824Z,49.37
2019-01-23T14:24:54.734Z,51.27
2019-01-23T14:27:59.926Z,51.03
2019-01-23T14:31:04.988Z,48.30
2019-01-23T14:34:09.827Z,44.37
2019-01-23T14:37:14.666Z,45.40
2019-01-23T14:40:20.473Z,44.43
2019-01-23T14:43:26.301Z,45.70
2019-01-23T14:46:31.170Z,43.17
2019-01-23T14:49:36.114Z,44.17
2019-01-23T14:52:41.264Z,43.83
2019-01-23T14:55:47.240Z,43.10
2019-01-23T14:58:52.090Z,40.43
2019-01-23T15:01:56.929Z,40.83
2019-01-23T15:05:01.769Z,38.67
2019-01-23T15:08:06.638Z,39.97
2019-01-23T15:11:11.496Z,39.10
2019-01-23T15:14:16.483Z,38.03
2019-01-23T15:17:21.344Z,37.57
2019-01-23T15:20:29.404Z,38.53
2019-01-23T15:23:34.334Z,36.90
2019-01-23T15:26:39.162Z,38.80
2019-01-23T15:29:44.035Z,38.93
2019-01-23T15:32:49.133Z,38.13
2019-01-23T15:35:54.061Z,36.23
2019-01-23T15:38:59.188Z,35.20
2019-01-23T15:42:04.150Z,32.00
2019-01-23T15:45:10.921Z,30.60
2019-01-23T15:48:16.763Z,33.07
2019-01-23T15:51:21.657Z,30.48
2019-01-23T15:54:26.501Z,30.70
2019-01-23T15:57:31.333Z,31.93
2019-01-23T16:00:36.168Z,28.97
2019-01-23T16:03:41.040Z,34.03
2019-01-23T16:06:45.901Z,30.37
2019-01-23T16:09:51.102Z,30.62
2019-01-23T16:12:55.947Z,30.63
2019-01-23T16:16:00.823Z,29.80
2019-01-23T16:19:05.874Z,30.57
2019-01-23T16:22:10.762Z,30.83
2019-01-23T16:25:17.008Z,31.57
2019-01-23T16:28:21.937Z,31.80
2019-01-23T16:31:27.102Z,28.57
2019-01-23T16:34:32.001Z,28.23
2019-01-23T16:37:36.895Z,29.47
2019-01-23T16:40:42.749Z,26.83
2019-01-23T16:43:47.682Z,30.13
2019-01-23T16:46:52.549Z,26.80
2019-01-23T16:49:57.383Z,26.73
2019-01-23T16:53:02.269Z,28.20
2019-01-23T16:56:07.196Z,29.17
2019-01-23T16:59:12.068Z,28.07
2019-01-23T17:02:16.989Z,28.43
2019-01-23T17:05:24.492Z,26.30
2019-01-23T17:08:29.430Z,25.90
2019-01-23T17:11:34.269Z,27.63
2019-01-23T17:14:39.160Z,26.23
2019-01-23T17:17:45.393Z,26.67
2019-01-23T17:20:50.277Z,25.85
2019-01-23T17:23:55.139Z,26.20
2019-01-23T17:27:00.980Z,25.70
2019-01-23T17:30:12.470Z,26.37
2019-01-23T17:33:17.606Z,26.02
2019-01-23T17:36:22.472Z,26.80
2019-01-23T17:39:27.898Z,26.83
2019-01-23T17:42:33.927Z,28.13
2019-01-23T17:45:39.914Z,27.27
2019-01-23T17:48:44.863Z,28.10
2019-01-23T17:51:49.726Z,25.83
2019-01-23T17:54:54.562Z,27.60
2019-01-23T17:57:59.855Z,26.40
2019-01-23T18:01:05.222Z,26.03
2019-01-23T18:04:11.676Z,25.12
2019-01-23T18:07:16.598Z,26.47
2019-01-23T18:10:21.694Z,25.30
2019-01-23T18:13:26.576Z,27.07
2019-01-23T18:16:31.514Z,26.42
2019-01-23T18:19:36.453Z,27.67
2019-01-23T18:22:41.399Z,25.67
2019-01-23T18:25:46.565Z,25.08
2019-01-23T18:28:51.390Z,27.07
2019-01-23T18:31:56.311Z,27.33
2019-01-23T18:35:16.094Z,26.67
2019-01-23T18:38:46.798Z,28.00
2019-01-23T18:41:54.773Z,27.07
2019-01-23T18:45:09.114Z,26.45
2019-01-23T18:48:29.068Z,28.70
2019-01-23T18:51:35.158Z,27.90
2019-01-23T18:54:41.703Z,28.67
2019-01-23T18:57:46.571Z,28.77
2019-01-23T19:00:51.446Z,27.83
2019-01-23T19:03:56.348Z,25.60
2019-01-23T19:07:01.271Z,25.80
2019-01-23T19:10:09.181Z,26.57
2019-01-23T19:13:14.017Z,25.00
2019-01-23T19:16:19.897Z,28.03
2019-01-23T19:19:24.731Z,27.57
2019-01-23T19:22:29.618Z,26.73
2019-01-23T19:25:34.554Z,27.30
2019-01-23T19:28:39.448Z,28.37
2019-01-23T19:31:44.440Z,28.73
2019-01-23T19:34:49.293Z,26.62
2019-01-23T19:37:54.175Z,29.00
2019-01-23T19:40:59.006Z,25.63
2019-01-23T19:44:04.970Z,27.07
2019-01-23T19:47:11.850Z,28.32
2019-01-23T19:50:16.776Z,28.57
2019-01-23T19:53:21.752Z,27.77
2019-01-23T19:56:27.204Z,28.90
2019-01-23T19:59:32.293Z,28.80
2019-01-23T20:02:37.126Z,27.23
2019-01-23T20:05:42.018Z,26.97
2019-01-23T20:08:46.904Z,27.47
2019-01-23T20:11:51.827Z,27.27
2019-01-23T20:14:56.758Z,27.17
2019-01-23T20:18:01.622Z,28.63
2019-01-23T20:21:06.549Z,29.00
2019-01-23T20:24:11.420Z,30.20
2019-01-23T20:27:17.733Z,30.33
2019-01-23T20:30:25.645Z,30.13
2019-01-23T20:33:30.514Z,27.07
2019-01-23T20:36:35.529Z,28.50
2019-01-23T20:39:40.610Z,28.60
2019-01-23T20:42:46.982Z,29.67
2019-01-23T20:45:51.829Z,28.67
2019-01-23T20:48:56.706Z,30.10
2019-01-23T20:52:01.577Z,29.83
2019-01-23T20:55:06.817Z,29.53
2019-01-23T20:58:11.722Z,28.73
2019-01-23T21:01:16.554Z,29.10
2019-01-23T21:04:21.448Z,29.47
2019-01-23T21:07:26.474Z,30.30
2019-01-23T21:10:31.339Z,29.53
2019-01-23T21:13:36.203Z,28.53
2019-01-23T21:16:41.051Z,29.70
2019-01-23T21:19:45.949Z,30.27
2019-01-23T21:22:50.801Z,28.53
2019-01-23T21:25:55.668Z,26.87
2019-01-23T21:29:00.599Z,29.70
2019-01-23T21:32:05.530Z,29.93
2019-01-23T21:35:10.938Z,30.70
2019-01-23T21:38:15.768Z,29.67
2019-01-23T21:41:20.638Z,30.53
2019-01-23T21:44:26.409Z,28.47
2019-01-23T21:47:31.329Z,28.83
2019-01-23T21:50:36.214Z,30.43
2019-01-23T21:53:42.031Z,26.80
2019-01-23T21:56:46.932Z,29.03
2019-01-23T21:59:51.838Z,30.08
2019-01-23T22:02:58.529Z,29.67
2019-01-23T22:06:03.454Z,31.43
2019-01-23T22:09:09.207Z,28.53
2019-01-23T22:12:14.057Z,28.50
2019-01-23T22:15:22.106Z,29.13
2019-01-23T22:18:26.946Z,28.63
2019-01-23T22:21:31.834Z,28.95
2019-01-23T22:24:36.772Z,26.73
2019-01-23T22:27:41.689Z,27.90
2019-01-23T22:30:46.530Z,27.97
2019-01-23T22:33:56.150Z,28.43
2019-01-23T22:36:58.009Z,27.20
2019-01-23T22:40:03.080Z,24.83
2019-01-23T22:43:11.264Z,28.63
2019-01-23T22:46:14.563Z,27.03
2019-01-23T22:49:19.489Z,26.97
2019-01-23T22:52:24.355Z,28.17
2019-01-23T22:55:29.338Z,28.43
2019-01-23T22:58:34.194Z,27.40
2019-01-23T23:01:39.030Z,28.23
2019-01-23T23:04:43.920Z,26.90
2019-01-23T23:07:48.788Z,30.30
2019-01-23T23:10:53.776Z,29.27
2019-01-23T23:13:58.712Z,28.07
2019-01-23T23:17:03.598Z,30.07
2019-01-23T23:20:10.778Z,30.00
2019-01-23T23:23:15.730Z,28.80
2019-01-23T23:26:20.578Z,29.73
2019-01-23T23:29:25.413Z,29.83
2019-01-23T23:32:30.467Z,30.37
2019-01-23T23:35:35.316Z,30.20
2019-01-23T23:38:41.074Z,30.47
2019-01-23T23:41:45.971Z,29.30
2019-01-23T23:44:50.904Z,30.00
2019-01-23T23:47:55.810Z,31.63
2019-01-23T23:51:00.650Z,28.37
2019-01-23T23:54:05.698Z,28.93
2019-01-23T23:57:10.630Z,28.67
